sensor_id;sensor_type;location;lat;lon;timestamp;P1;durP1;ratioP1;P2;durP2;ratioP2
19554;SDS011;9924;50.828;6.440;2023-03-31T00:00:50;8.02;;;1.13;;
19554;SDS011;9924;50.828;6.440;2023-03-31T00:03:40;2.67;;;0.90;;
19554;SDS011;9924;50.828;6.440;2023-03-31T00:06:27;8.45;;;1.15;;
19554;SDS011;9924;50.828;6.440;2023-03-31T00:09:12;6.85;;;1.15;;
19554;SDS011;9924;50.828;6.440;2023-03-31T00:12:01;7.28;;;1.48;;
19554;SDS011;9924;50.828;6.440;2023-03-31T00:14:46;5.20;;;1.30;;
19554;SDS011;9924;50.828;6.440;2023-03-31T00:17:31;9.38;;;2.17;;
19554;SDS011;9924;50.828;6.440;2023-03-31T00:20:18;8.90;;;1.38;;
19554;SDS011;9924;50.828;6.440;2023-03-31T00:23:04;4.38;;;1.73;;
19554;SDS011;9924;50.828;6.440;2023-03-31T00:25:54;10.13;;;1.42;;
19554;SDS011;9924;50.828;6.440;2023-03-31T00:28:38;8.80;;;1.63;;
19554;SDS011;9924;50.828;6.440;2023-03-31T00:31:23;12.13;;;2.00;;
19554;SDS011;9924;50.828;6.440;2023-03-31T00:34:10;9.93;;;1.60;;
19554;SDS011;9924;50.828;6.440;2023-03-31T00:36:55;7.00;;;1.63;;
19554;SDS011;9924;50.828;6.440;2023-03-31T00:39:40;9.30;;;1.95;;
19554;SDS011;9924;50.828;6.440;2023-03-31T00:42:26;10.35;;;2.08;;
19554;SDS011;9924;50.828;6.440;2023-03-31T00:48:04;11.23;;;2.00;;
19554;SDS011;9924;50.828;6.440;2023-03-31T00:50:53;10.48;;;2.45;;
19554;SDS011;9924;50.828;6.440;2023-03-31T00:53:40;12.68;;;2.95;;
19554;SDS011;9924;50.828;6.440;2023-03-31T00:56:25;21.75;;;2.55;;
19554;SDS011;9924;50.828;6.440;2023-03-31T00:59:14;10.45;;;1.95;;
19554;SDS011;9924;50.828;6.440;2023-03-31T01:02:00;11.25;;;2.40;;
19554;SDS011;9924;50.828;6.440;2023-03-31T01:04:47;8.93;;;1.95;;
19554;SDS011;9924;50.828;6.440;2023-03-31T01:07:41;10.45;;;1.80;;
19554;SDS011;9924;50.828;6.440;2023-03-31T01:10:28;8.50;;;1.90;;
19554;SDS011;9924;50.828;6.440;2023-03-31T01:13:21;10.65;;;1.88;;
19554;SDS011;9924;50.828;6.440;2023-03-31T01:16:08;17.80;;;2.25;;
19554;SDS011;9924;50.828;6.440;2023-03-31T01:18:53;11.60;;;2.15;;
19554;SDS011;9924;50.828;6.440;2023-03-31T01:31:02;10.02;;;2.38;;
19554;SDS011;9924;50.828;6.440;2023-03-31T01:36:45;12.45;;;2.42;;
19554;SDS011;9924;50.828;6.440;2023-03-31T01:43:06;12.63;;;2.40;;
19554;SDS011;9924;50.828;6.440;2023-03-31T01:48:47;8.73;;;1.92;;
19554;SDS011;9924;50.828;6.440;2023-03-31T01:51:48;11.93;;;2.38;;
19554;SDS011;9924;50.828;6.440;2023-03-31T01:54:53;10.90;;;1.70;;
19554;SDS011;9924;50.828;6.440;2023-03-31T01:58:28;10.23;;;1.80;;
19554;SDS011;9924;50.828;6.440;2023-03-31T02:01:04;12.20;;;1.95;;
19554;SDS011;9924;50.828;6.440;2023-03-31T02:03:57;11.75;;;2.40;;
19554;SDS011;9924;50.828;6.440;2023-03-31T02:06:57;9.77;;;1.73;;
19554;SDS011;9924;50.828;6.440;2023-03-31T02:09:57;9.93;;;2.70;;
19554;SDS011;9924;50.828;6.440;2023-03-31T02:12:52;8.40;;;1.73;;
19554;SDS011;9924;50.828;6.440;2023-03-31T02:16:22;10.25;;;1.60;;
19554;SDS011;9924;50.828;6.440;2023-03-31T02:19:31;8.88;;;1.50;;
19554;SDS011;9924;50.828;6.440;2023-03-31T02:22:44;10.77;;;2.25;;
19554;SDS011;9924;50.828;6.440;2023-03-31T02:25:50;9.70;;;2.00;;
19554;SDS011;9924;50.828;6.440;2023-03-31T02:28:58;6.55;;;1.42;;
19554;SDS011;9924;50.828;6.440;2023-03-31T02:35:40;10.50;;;1.30;;
19554;SDS011;9924;50.828;6.440;2023-03-31T02:38:42;6.70;;;1.80;;
19554;SDS011;9924;50.828;6.440;2023-03-31T02:45:32;8.40;;;1.58;;
19554;SDS011;9924;50.828;6.440;2023-03-31T02:48:50;8.68;;;1.23;;
19554;SDS011;9924;50.828;6.440;2023-03-31T03:08:39;9.52;;;1.60;;
19554;SDS011;9924;50.828;6.440;2023-03-31T03:11:36;4.65;;;1.45;;
19554;SDS011;9924;50.828;6.440;2023-03-31T03:14:45;6.03;;;1.60;;
19554;SDS011;9924;50.828;6.440;2023-03-31T03:17:55;6.60;;;1.50;;
19554;SDS011;9924;50.828;6.440;2023-03-31T03:20:49;7.32;;;1.60;;
19554;SDS011;9924;50.828;6.440;2023-03-31T03:24:04;7.95;;;1.63;;
19554;SDS011;9924;50.828;6.440;2023-03-31T03:27:12;6.75;;;1.15;;
19554;SDS011;9924;50.828;6.440;2023-03-31T03:33:52;6.22;;;1.23;;
19554;SDS011;9924;50.828;6.440;2023-03-31T03:36:51;4.43;;;1.02;;
19554;SDS011;9924;50.828;6.440;2023-03-31T03:43:21;4.15;;;0.80;;
19554;SDS011;9924;50.828;6.440;2023-03-31T03:46:09;2.80;;;0.68;;
19554;SDS011;9924;50.828;6.440;2023-03-31T03:49:00;4.88;;;1.33;;
19554;SDS011;9924;50.828;6.440;2023-03-31T03:54:51;3.92;;;1.00;;
19554;SDS011;9924;50.828;6.440;2023-03-31T03:57:42;8.35;;;1.20;;
19554;SDS011;9924;50.828;6.440;2023-03-31T04:01:11;4.95;;;0.90;;
19554;SDS011;9924;50.828;6.440;2023-03-31T04:04:11;4.07;;;1.10;;
19554;SDS011;9924;50.828;6.440;2023-03-31T04:06:57;3.92;;;1.10;;
19554;SDS011;9924;50.828;6.440;2023-03-31T04:12:38;3.10;;;0.80;;
19554;SDS011;9924;50.828;6.440;2023-03-31T04:15:23;2.97;;;1.00;;
19554;SDS011;9924;50.828;6.440;2023-03-31T04:18:24;6.25;;;0.90;;
19554;SDS011;9924;50.828;6.440;2023-03-31T04:21:10;2.33;;;0.75;;
19554;SDS011;9924;50.828;6.440;2023-03-31T04:27:13;3.70;;;0.95;;
19554;SDS011;9924;50.828;6.440;2023-03-31T04:30:00;2.05;;;0.80;;
19554;SDS011;9924;50.828;6.440;2023-03-31T04:33:01;3.33;;;0.93;;
19554;SDS011;9924;50.828;6.440;2023-03-31T04:36:12;4.00;;;1.45;;
19554;SDS011;9924;50.828;6.440;2023-03-31T04:39:24;2.90;;;0.90;;
19554;SDS011;9924;50.828;6.440;2023-03-31T04:42:09;3.20;;;1.33;;
19554;SDS011;9924;50.828;6.440;2023-03-31T04:44:55;3.05;;;1.00;;
19554;SDS011;9924;50.828;6.440;2023-03-31T04:47:40;3.05;;;0.95;;
19554;SDS011;9924;50.828;6.440;2023-03-31T04:50:29;4.68;;;1.00;;
19554;SDS011;9924;50.828;6.440;2023-03-31T04:53:23;1.33;;;0.63;;
19554;SDS011;9924;50.828;6.440;2023-03-31T04:56:32;4.15;;;0.73;;
19554;SDS011;9924;50.828;6.440;2023-03-31T04:59:19;2.60;;;0.80;;
19554;SDS011;9924;50.828;6.440;2023-03-31T05:02:14;3.63;;;1.08;;
19554;SDS011;9924;50.828;6.440;2023-03-31T05:05:09;4.05;;;0.80;;
19554;SDS011;9924;50.828;6.440;2023-03-31T05:08:12;2.78;;;0.85;;
19554;SDS011;9924;50.828;6.440;2023-03-31T05:11:01;2.90;;;0.60;;
19554;SDS011;9924;50.828;6.440;2023-03-31T05:13:47;2.47;;;0.70;;
19554;SDS011;9924;50.828;6.440;2023-03-31T05:16:44;1.73;;;0.68;;
19554;SDS011;9924;50.828;6.440;2023-03-31T05:20:18;4.03;;;1.08;;
19554;SDS011;9924;50.828;6.440;2023-03-31T05:23:08;1.48;;;0.73;;
19554;SDS011;9924;50.828;6.440;2023-03-31T05:26:09;4.05;;;0.70;;
19554;SDS011;9924;50.828;6.440;2023-03-31T05:29:01;1.73;;;0.60;;
19554;SDS011;9924;50.828;6.440;2023-03-31T05:31:46;1.65;;;0.52;;
19554;SDS011;9924;50.828;6.440;2023-03-31T05:34:36;1.38;;;0.70;;
19554;SDS011;9924;50.828;6.440;2023-03-31T05:40:50;1.00;;;0.50;;
19554;SDS011;9924;50.828;6.440;2023-03-31T05:44:09;1.02;;;0.63;;
19554;SDS011;9924;50.828;6.440;2023-03-31T05:46:55;2.28;;;0.52;;
19554;SDS011;9924;50.828;6.440;2023-03-31T05:49:49;1.70;;;0.70;;
19554;SDS011;9924;50.828;6.440;2023-03-31T05:52:34;3.60;;;0.55;;
19554;SDS011;9924;50.828;6.440;2023-03-31T05:55:43;2.08;;;0.60;;
19554;SDS011;9924;50.828;6.440;2023-03-31T06:01:38;3.35;;;1.33;;
19554;SDS011;9924;50.828;6.440;2023-03-31T06:04:23;1.98;;;0.80;;
19554;SDS011;9924;50.828;6.440;2023-03-31T06:07:08;2.70;;;0.63;;
19554;SDS011;9924;50.828;6.440;2023-03-31T06:09:54;2.00;;;0.50;;
19554;SDS011;9924;50.828;6.440;2023-03-31T06:12:39;3.50;;;0.80;;
19554;SDS011;9924;50.828;6.440;2023-03-31T06:15:23;3.65;;;0.70;;
19554;SDS011;9924;50.828;6.440;2023-03-31T06:18:07;4.22;;;0.75;;
19554;SDS011;9924;50.828;6.440;2023-03-31T06:20:53;4.00;;;0.90;;
19554;SDS011;9924;50.828;6.440;2023-03-31T06:23:38;2.78;;;0.60;;
19554;SDS011;9924;50.828;6.440;2023-03-31T06:26:23;1.70;;;0.57;;
19554;SDS011;9924;50.828;6.440;2023-03-31T06:29:08;2.58;;;0.90;;
19554;SDS011;9924;50.828;6.440;2023-03-31T06:31:53;2.83;;;0.98;;
19554;SDS011;9924;50.828;6.440;2023-03-31T06:34:38;2.90;;;0.65;;
19554;SDS011;9924;50.828;6.440;2023-03-31T06:37:25;2.63;;;0.88;;
19554;SDS011;9924;50.828;6.440;2023-03-31T06:40:09;2.38;;;0.68;;
19554;SDS011;9924;50.828;6.440;2023-03-31T06:42:54;1.50;;;0.80;;
19554;SDS011;9924;50.828;6.440;2023-03-31T06:45:38;5.53;;;0.70;;
19554;SDS011;9924;50.828;6.440;2023-03-31T06:48:23;3.60;;;0.90;;
19554;SDS011;9924;50.828;6.440;2023-03-31T06:51:09;3.17;;;0.80;;
19554;SDS011;9924;50.828;6.440;2023-03-31T06:53:53;2.55;;;0.80;;
19554;SDS011;9924;50.828;6.440;2023-03-31T06:56:38;4.07;;;0.90;;
19554;SDS011;9924;50.828;6.440;2023-03-31T06:59:22;4.90;;;1.05;;
19554;SDS011;9924;50.828;6.440;2023-03-31T07:02:08;3.83;;;0.70;;
19554;SDS011;9924;50.828;6.440;2023-03-31T07:04:54;3.13;;;0.90;;
19554;SDS011;9924;50.828;6.440;2023-03-31T07:07:38;4.57;;;1.10;;
19554;SDS011;9924;50.828;6.440;2023-03-31T07:10:23;3.10;;;0.75;;
19554;SDS011;9924;50.828;6.440;2023-03-31T07:13:09;2.95;;;0.82;;
19554;SDS011;9924;50.828;6.440;2023-03-31T07:15:53;4.72;;;1.02;;
19554;SDS011;9924;50.828;6.440;2023-03-31T07:18:38;4.82;;;0.90;;
19554;SDS011;9924;50.828;6.440;2023-03-31T07:21:24;4.70;;;1.20;;
19554;SDS011;9924;50.828;6.440;2023-03-31T07:24:09;3.53;;;1.20;;
19554;SDS011;9924;50.828;6.440;2023-03-31T07:26:53;6.78;;;1.10;;
19554;SDS011;9924;50.828;6.440;2023-03-31T07:29:37;10.05;;;1.92;;
19554;SDS011;9924;50.828;6.440;2023-03-31T07:32:22;4.22;;;1.23;;
19554;SDS011;9924;50.828;6.440;2023-03-31T07:35:07;8.95;;;1.50;;
19554;SDS011;9924;50.828;6.440;2023-03-31T07:37:52;8.88;;;1.45;;
19554;SDS011;9924;50.828;6.440;2023-03-31T07:40:37;8.63;;;1.30;;
19554;SDS011;9924;50.828;6.440;2023-03-31T07:43:22;7.22;;;1.70;;
19554;SDS011;9924;50.828;6.440;2023-03-31T07:46:12;12.15;;;1.52;;
19554;SDS011;9924;50.828;6.440;2023-03-31T07:48:57;11.98;;;2.05;;
19554;SDS011;9924;50.828;6.440;2023-03-31T07:51:44;5.38;;;1.40;;
19554;SDS011;9924;50.828;6.440;2023-03-31T07:54:29;6.95;;;1.63;;
19554;SDS011;9924;50.828;6.440;2023-03-31T07:57:13;8.75;;;1.25;;
19554;SDS011;9924;50.828;6.440;2023-03-31T08:00:00;5.05;;;1.10;;
19554;SDS011;9924;50.828;6.440;2023-03-31T08:02:50;8.00;;;2.38;;
19554;SDS011;9924;50.828;6.440;2023-03-31T08:05:34;6.00;;;1.35;;
19554;SDS011;9924;50.828;6.440;2023-03-31T08:08:19;7.55;;;1.90;;
19554;SDS011;9924;50.828;6.440;2023-03-31T08:11:04;6.50;;;1.58;;
19554;SDS011;9924;50.828;6.440;2023-03-31T08:13:48;9.27;;;1.25;;
19554;SDS011;9924;50.828;6.440;2023-03-31T08:16:33;11.60;;;2.20;;
19554;SDS011;9924;50.828;6.440;2023-03-31T08:19:17;6.93;;;1.55;;
19554;SDS011;9924;50.828;6.440;2023-03-31T08:22:02;5.28;;;1.52;;
19554;SDS011;9924;50.828;6.440;2023-03-31T08:24:47;8.10;;;2.10;;
19554;SDS011;9924;50.828;6.440;2023-03-31T08:27:32;8.88;;;1.60;;
19554;SDS011;9924;50.828;6.440;2023-03-31T08:30:18;11.00;;;1.92;;
19554;SDS011;9924;50.828;6.440;2023-03-31T08:33:03;10.25;;;2.00;;
19554;SDS011;9924;50.828;6.440;2023-03-31T08:35:47;6.95;;;2.13;;
19554;SDS011;9924;50.828;6.440;2023-03-31T08:38:32;7.68;;;1.83;;
19554;SDS011;9924;50.828;6.440;2023-03-31T08:44:31;7.75;;;1.73;;
19554;SDS011;9924;50.828;6.440;2023-03-31T08:47:35;6.07;;;1.70;;
19554;SDS011;9924;50.828;6.440;2023-03-31T08:50:24;9.65;;;2.22;;
19554;SDS011;9924;50.828;6.440;2023-03-31T08:53:20;12.90;;;2.05;;
19554;SDS011;9924;50.828;6.440;2023-03-31T08:56:19;13.52;;;2.47;;
19554;SDS011;9924;50.828;6.440;2023-03-31T08:59:06;11.55;;;1.77;;
19554;SDS011;9924;50.828;6.440;2023-03-31T09:10:53;10.02;;;1.90;;
19554;SDS011;9924;50.828;6.440;2023-03-31T09:14:01;11.90;;;2.33;;
19554;SDS011;9924;50.828;6.440;2023-03-31T09:17:10;9.77;;;1.63;;
19554;SDS011;9924;50.828;6.440;2023-03-31T09:19:59;7.50;;;1.58;;
19554;SDS011;9924;50.828;6.440;2023-03-31T09:23:35;5.63;;;1.85;;
19554;SDS011;9924;50.828;6.440;2023-03-31T09:26:24;14.23;;;2.55;;
19554;SDS011;9924;50.828;6.440;2023-03-31T09:29:15;6.22;;;2.03;;
19554;SDS011;9924;50.828;6.440;2023-03-31T09:32:15;10.25;;;2.47;;
19554;SDS011;9924;50.828;6.440;2023-03-31T09:35:17;7.88;;;1.80;;
19554;SDS011;9924;50.828;6.440;2023-03-31T09:38:04;7.00;;;1.63;;
19554;SDS011;9924;50.828;6.440;2023-03-31T09:40:48;12.40;;;2.22;;
19554;SDS011;9924;50.828;6.440;2023-03-31T09:43:33;8.23;;;2.08;;
19554;SDS011;9924;50.828;6.440;2023-03-31T09:46:32;8.77;;;1.90;;
19554;SDS011;9924;50.828;6.440;2023-03-31T09:49:19;7.25;;;1.95;;
19554;SDS011;9924;50.828;6.440;2023-03-31T09:52:06;10.70;;;1.90;;
19554;SDS011;9924;50.828;6.440;2023-03-31T09:54:57;9.70;;;2.03;;
19554;SDS011;9924;50.828;6.440;2023-03-31T09:57:44;6.47;;;1.88;;
19554;SDS011;9924;50.828;6.440;2023-03-31T10:00:29;12.00;;;2.20;;
19554;SDS011;9924;50.828;6.440;2023-03-31T10:03:13;11.63;;;2.20;;
19554;SDS011;9924;50.828;6.440;2023-03-31T10:05:58;8.93;;;1.63;;
19554;SDS011;9924;50.828;6.440;2023-03-31T10:12:28;9.38;;;1.77;;
19554;SDS011;9924;50.828;6.440;2023-03-31T10:15:13;5.13;;;2.00;;
19554;SDS011;9924;50.828;6.440;2023-03-31T10:18:03;14.02;;;1.90;;
19554;SDS011;9924;50.828;6.440;2023-03-31T10:20:49;8.60;;;1.80;;
19554;SDS011;9924;50.828;6.440;2023-03-31T10:23:35;7.45;;;1.88;;
19554;SDS011;9924;50.828;6.440;2023-03-31T10:26:21;10.32;;;1.73;;
19554;SDS011;9924;50.828;6.440;2023-03-31T10:29:09;7.20;;;1.83;;
19554;SDS011;9924;50.828;6.440;2023-03-31T10:32:01;8.80;;;1.80;;
19554;SDS011;9924;50.828;6.440;2023-03-31T10:35:29;6.90;;;1.27;;
19554;SDS011;9924;50.828;6.440;2023-03-31T10:38:18;5.72;;;1.70;;
19554;SDS011;9924;50.828;6.440;2023-03-31T10:41:18;4.70;;;1.30;;
19554;SDS011;9924;50.828;6.440;2023-03-31T10:44:04;9.52;;;1.75;;
19554;SDS011;9924;50.828;6.440;2023-03-31T10:46:49;7.60;;;1.65;;
19554;SDS011;9924;50.828;6.440;2023-03-31T10:49:39;6.30;;;1.60;;
19554;SDS011;9924;50.828;6.440;2023-03-31T10:52:25;5.40;;;1.35;;
19554;SDS011;9924;50.828;6.440;2023-03-31T10:55:11;5.88;;;2.08;;
19554;SDS011;9924;50.828;6.440;2023-03-31T10:58:06;9.95;;;1.77;;
19554;SDS011;9924;50.828;6.440;2023-03-31T11:07:27;8.88;;;2.17;;
19554;SDS011;9924;50.828;6.440;2023-03-31T11:10:28;11.30;;;2.00;;
19554;SDS011;9924;50.828;6.440;2023-03-31T11:13:43;13.93;;;2.20;;
19554;SDS011;9924;50.828;6.440;2023-03-31T11:22:31;13.10;;;2.33;;
19554;SDS011;9924;50.828;6.440;2023-03-31T11:25:32;10.90;;;2.10;;
19554;SDS011;9924;50.828;6.440;2023-03-31T11:28:28;15.23;;;2.92;;
19554;SDS011;9924;50.828;6.440;2023-03-31T11:31:25;12.93;;;2.40;;
19554;SDS011;9924;50.828;6.440;2023-03-31T11:34:39;11.43;;;2.95;;
19554;SDS011;9924;50.828;6.440;2023-03-31T11:43:46;9.23;;;1.90;;
19554;SDS011;9924;50.828;6.440;2023-03-31T11:46:45;12.05;;;2.45;;
19554;SDS011;9924;50.828;6.440;2023-03-31T11:49:40;11.05;;;2.08;;
19554;SDS011;9924;50.828;6.440;2023-03-31T11:52:36;11.20;;;1.88;;
19554;SDS011;9924;50.828;6.440;2023-03-31T11:55:24;10.15;;;1.67;;
19554;SDS011;9924;50.828;6.440;2023-03-31T11:58:13;12.07;;;2.22;;
19554;SDS011;9924;50.828;6.440;2023-03-31T12:04:18;8.00;;;1.88;;
19554;SDS011;9924;50.828;6.440;2023-03-31T12:07:23;10.43;;;1.70;;
19554;SDS011;9924;50.828;6.440;2023-03-31T12:10:19;11.57;;;2.28;;
19554;SDS011;9924;50.828;6.440;2023-03-31T12:13:26;8.13;;;1.85;;
19554;SDS011;9924;50.828;6.440;2023-03-31T12:16:18;10.82;;;2.13;;
19554;SDS011;9924;50.828;6.440;2023-03-31T12:22:03;7.00;;;1.83;;
19554;SDS011;9924;50.828;6.440;2023-03-31T12:24:58;8.27;;;1.75;;
19554;SDS011;9924;50.828;6.440;2023-03-31T12:27:44;8.10;;;1.70;;
19554;SDS011;9924;50.828;6.440;2023-03-31T12:30:34;11.23;;;2.00;;
19554;SDS011;9924;50.828;6.440;2023-03-31T12:33:24;8.90;;;1.58;;
19554;SDS011;9924;50.828;6.440;2023-03-31T12:39:34;7.93;;;1.73;;
19554;SDS011;9924;50.828;6.440;2023-03-31T12:42:36;9.38;;;1.80;;
19554;SDS011;9924;50.828;6.440;2023-03-31T12:45:46;9.48;;;2.72;;
19554;SDS011;9924;50.828;6.440;2023-03-31T13:01:24;7.32;;;1.70;;
19554;SDS011;9924;50.828;6.440;2023-03-31T13:04:21;8.60;;;1.25;;
19554;SDS011;9924;50.828;6.440;2023-03-31T13:13:31;7.15;;;1.38;;
19554;SDS011;9924;50.828;6.440;2023-03-31T13:16:08;5.30;;;1.50;;
19554;SDS011;9924;50.828;6.440;2023-03-31T13:18:53;5.13;;;1.10;;
19554;SDS011;9924;50.828;6.440;2023-03-31T13:21:54;6.60;;;1.25;;
19554;SDS011;9924;50.828;6.440;2023-03-31T13:24:40;4.25;;;0.98;;
19554;SDS011;9924;50.828;6.440;2023-03-31T13:27:33;5.07;;;1.30;;
19554;SDS011;9924;50.828;6.440;2023-03-31T13:33:25;5.38;;;1.20;;
19554;SDS011;9924;50.828;6.440;2023-03-31T13:42:29;6.18;;;1.23;;
19554;SDS011;9924;50.828;6.440;2023-03-31T13:45:51;5.18;;;0.85;;
19554;SDS011;9924;50.828;6.440;2023-03-31T13:52:24;5.38;;;1.00;;
19554;SDS011;9924;50.828;6.440;2023-03-31T14:07:44;3.80;;;1.00;;
19554;SDS011;9924;50.828;6.440;2023-03-31T14:10:33;3.20;;;0.90;;
19554;SDS011;9924;50.828;6.440;2023-03-31T14:13:23;5.18;;;1.10;;
19554;SDS011;9924;50.828;6.440;2023-03-31T14:16:08;4.40;;;1.15;;
19554;SDS011;9924;50.828;6.440;2023-03-31T14:18:54;2.72;;;1.10;;
19554;SDS011;9924;50.828;6.440;2023-03-31T14:22:06;3.72;;;1.30;;
19554;SDS011;9924;50.828;6.440;2023-03-31T14:25:10;5.45;;;1.33;;
19554;SDS011;9924;50.828;6.440;2023-03-31T14:31:08;7.47;;;1.45;;
19554;SDS011;9924;50.828;6.440;2023-03-31T14:37:25;7.22;;;1.40;;
19554;SDS011;9924;50.828;6.440;2023-03-31T14:40:12;6.28;;;1.30;;
19554;SDS011;9924;50.828;6.440;2023-03-31T14:42:59;6.45;;;1.58;;
19554;SDS011;9924;50.828;6.440;2023-03-31T14:45:44;7.00;;;1.23;;
19554;SDS011;9924;50.828;6.440;2023-03-31T14:48:30;5.63;;;1.20;;
19554;SDS011;9924;50.828;6.440;2023-03-31T14:51:18;4.82;;;1.52;;
19554;SDS011;9924;50.828;6.440;2023-03-31T14:54:16;8.73;;;1.92;;
19554;SDS011;9924;50.828;6.440;2023-03-31T14:57:02;4.63;;;1.05;;
19554;SDS011;9924;50.828;6.440;2023-03-31T14:59:48;5.47;;;1.08;;
19554;SDS011;9924;50.828;6.440;2023-03-31T15:02:36;7.55;;;1.35;;
19554;SDS011;9924;50.828;6.440;2023-03-31T15:08:16;6.32;;;1.40;;
19554;SDS011;9924;50.828;6.440;2023-03-31T15:11:07;5.25;;;1.20;;
19554;SDS011;9924;50.828;6.440;2023-03-31T15:13:53;6.28;;;0.98;;
19554;SDS011;9924;50.828;6.440;2023-03-31T15:16:39;5.00;;;1.27;;
19554;SDS011;9924;50.828;6.440;2023-03-31T15:19:29;5.30;;;1.13;;
19554;SDS011;9924;50.828;6.440;2023-03-31T15:22:16;9.23;;;1.45;;
19554;SDS011;9924;50.828;6.440;2023-03-31T15:25:04;3.75;;;1.30;;
19554;SDS011;9924;50.828;6.440;2023-03-31T15:27:53;3.72;;;0.98;;
19554;SDS011;9924;50.828;6.440;2023-03-31T15:30:41;4.22;;;1.10;;
19554;SDS011;9924;50.828;6.440;2023-03-31T15:33:32;6.28;;;1.38;;
19554;SDS011;9924;50.828;6.440;2023-03-31T15:36:23;5.25;;;1.70;;
19554;SDS011;9924;50.828;6.440;2023-03-31T15:39:10;5.35;;;1.30;;
19554;SDS011;9924;50.828;6.440;2023-03-31T15:41:57;9.43;;;1.30;;
19554;SDS011;9924;50.828;6.440;2023-03-31T15:44:45;5.88;;;1.13;;
19554;SDS011;9924;50.828;6.440;2023-03-31T15:47:37;8.02;;;1.45;;
19554;SDS011;9924;50.828;6.440;2023-03-31T15:50:32;7.18;;;1.20;;
19554;SDS011;9924;50.828;6.440;2023-03-31T15:53:22;5.03;;;1.27;;
19554;SDS011;9924;50.828;6.440;2023-03-31T15:56:30;7.43;;;1.10;;
19554;SDS011;9924;50.828;6.440;2023-03-31T15:59:21;6.85;;;1.55;;
19554;SDS011;9924;50.828;6.440;2023-03-31T16:02:07;4.60;;;0.82;;
19554;SDS011;9924;50.828;6.440;2023-03-31T16:04:59;4.97;;;1.50;;
19554;SDS011;9924;50.828;6.440;2023-03-31T16:07:44;6.72;;;1.10;;
19554;SDS011;9924;50.828;6.440;2023-03-31T16:10:30;4.53;;;1.13;;
19554;SDS011;9924;50.828;6.440;2023-03-31T16:13:17;5.20;;;1.25;;
19554;SDS011;9924;50.828;6.440;2023-03-31T16:16:09;3.33;;;1.27;;
19554;SDS011;9924;50.828;6.440;2023-03-31T16:19:07;6.85;;;1.00;;
19554;SDS011;9924;50.828;6.440;2023-03-31T16:21:57;4.47;;;1.23;;
19554;SDS011;9924;50.828;6.440;2023-03-31T16:24:44;4.40;;;1.00;;
19554;SDS011;9924;50.828;6.440;2023-03-31T16:27:29;6.75;;;1.27;;
19554;SDS011;9924;50.828;6.440;2023-03-31T16:30:15;6.15;;;0.88;;
19554;SDS011;9924;50.828;6.440;2023-03-31T16:35:49;6.75;;;1.00;;
19554;SDS011;9924;50.828;6.440;2023-03-31T16:38:36;5.43;;;1.10;;
19554;SDS011;9924;50.828;6.440;2023-03-31T16:41:20;4.75;;;1.02;;
19554;SDS011;9924;50.828;6.440;2023-03-31T16:44:09;5.15;;;1.00;;
19554;SDS011;9924;50.828;6.440;2023-03-31T16:46:54;6.53;;;1.13;;
19554;SDS011;9924;50.828;6.440;2023-03-31T16:49:38;4.40;;;0.98;;
19554;SDS011;9924;50.828;6.440;2023-03-31T16:52:23;3.17;;;0.80;;
19554;SDS011;9924;50.828;6.440;2023-03-31T16:55:08;7.43;;;1.38;;
19554;SDS011;9924;50.828;6.440;2023-03-31T16:57:53;5.57;;;0.80;;
19554;SDS011;9924;50.828;6.440;2023-03-31T17:00:38;2.60;;;1.00;;
19554;SDS011;9924;50.828;6.440;2023-03-31T17:03:23;4.47;;;1.20;;
19554;SDS011;9924;50.828;6.440;2023-03-31T17:06:09;4.80;;;1.00;;
19554;SDS011;9924;50.828;6.440;2023-03-31T17:08:55;4.00;;;0.98;;
19554;SDS011;9924;50.828;6.440;2023-03-31T17:11:39;3.97;;;1.15;;
19554;SDS011;9924;50.828;6.440;2023-03-31T17:14:24;5.03;;;1.10;;
19554;SDS011;9924;50.828;6.440;2023-03-31T17:17:09;4.20;;;0.95;;
19554;SDS011;9924;50.828;6.440;2023-03-31T17:19:54;3.35;;;0.98;;
19554;SDS011;9924;50.828;6.440;2023-03-31T17:22:38;6.80;;;1.08;;
19554;SDS011;9924;50.828;6.440;2023-03-31T17:25:23;5.00;;;1.15;;
19554;SDS011;9924;50.828;6.440;2023-03-31T17:28:07;7.65;;;1.10;;
19554;SDS011;9924;50.828;6.440;2023-03-31T17:30:52;5.57;;;1.10;;
19554;SDS011;9924;50.828;6.440;2023-03-31T17:33:36;5.28;;;0.90;;
19554;SDS011;9924;50.828;6.440;2023-03-31T17:36:21;5.05;;;1.00;;
19554;SDS011;9924;50.828;6.440;2023-03-31T17:39:06;4.53;;;1.40;;
19554;SDS011;9924;50.828;6.440;2023-03-31T17:41:51;5.88;;;1.23;;
19554;SDS011;9924;50.828;6.440;2023-03-31T17:44:35;4.78;;;0.95;;
19554;SDS011;9924;50.828;6.440;2023-03-31T17:47:20;5.70;;;1.20;;
19554;SDS011;9924;50.828;6.440;2023-03-31T17:50:05;4.30;;;1.20;;
19554;SDS011;9924;50.828;6.440;2023-03-31T17:52:51;6.20;;;1.10;;
19554;SDS011;9924;50.828;6.440;2023-03-31T17:55:35;2.42;;;0.68;;
19554;SDS011;9924;50.828;6.440;2023-03-31T17:58:23;5.25;;;1.02;;
19554;SDS011;9924;50.828;6.440;2023-03-31T18:01:09;3.63;;;1.00;;
19554;SDS011;9924;50.828;6.440;2023-03-31T18:03:54;5.50;;;0.90;;
19554;SDS011;9924;50.828;6.440;2023-03-31T18:06:39;5.57;;;1.45;;
19554;SDS011;9924;50.828;6.440;2023-03-31T18:09:27;5.45;;;1.15;;
19554;SDS011;9924;50.828;6.440;2023-03-31T18:12:12;9.15;;;1.05;;
19554;SDS011;9924;50.828;6.440;2023-03-31T18:14:56;5.22;;;1.30;;
19554;SDS011;9924;50.828;6.440;2023-03-31T18:17:41;5.35;;;1.55;;
19554;SDS011;9924;50.828;6.440;2023-03-31T18:20:26;3.08;;;0.98;;
19554;SDS011;9924;50.828;6.440;2023-03-31T18:23:10;2.63;;;1.20;;
19554;SDS011;9924;50.828;6.440;2023-03-31T18:25:55;3.72;;;1.48;;
19554;SDS011;9924;50.828;6.440;2023-03-31T18:28:40;6.90;;;1.20;;
19554;SDS011;9924;50.828;6.440;2023-03-31T18:31:24;4.82;;;0.93;;
19554;SDS011;9924;50.828;6.440;2023-03-31T18:34:10;4.00;;;1.13;;
19554;SDS011;9924;50.828;6.440;2023-03-31T18:36:56;6.00;;;1.02;;
19554;SDS011;9924;50.828;6.440;2023-03-31T18:39:40;2.60;;;1.30;;
19554;SDS011;9924;50.828;6.440;2023-03-31T18:42:25;5.30;;;1.30;;
19554;SDS011;9924;50.828;6.440;2023-03-31T18:45:09;5.00;;;0.90;;
19554;SDS011;9924;50.828;6.440;2023-03-31T18:47:55;4.95;;;1.25;;
19554;SDS011;9924;50.828;6.440;2023-03-31T18:50:39;4.70;;;0.95;;
19554;SDS011;9924;50.828;6.440;2023-03-31T18:53:25;6.95;;;1.30;;
19554;SDS011;9924;50.828;6.440;2023-03-31T18:56:10;3.40;;;0.85;;
19554;SDS011;9924;50.828;6.440;2023-03-31T18:58:54;3.83;;;0.80;;
19554;SDS011;9924;50.828;6.440;2023-03-31T19:01:39;4.18;;;1.08;;
19554;SDS011;9924;50.828;6.440;2023-03-31T19:04:24;3.58;;;1.10;;
19554;SDS011;9924;50.828;6.440;2023-03-31T19:07:09;5.40;;;0.80;;
19554;SDS011;9924;50.828;6.440;2023-03-31T19:09:54;3.95;;;1.27;;
19554;SDS011;9924;50.828;6.440;2023-03-31T19:12:38;7.47;;;1.20;;
19554;SDS011;9924;50.828;6.440;2023-03-31T19:15:23;6.05;;;1.20;;
19554;SDS011;9924;50.828;6.440;2023-03-31T19:18:12;8.85;;;1.35;;
19554;SDS011;9924;50.828;6.440;2023-03-31T19:20:57;2.03;;;0.88;;
19554;SDS011;9924;50.828;6.440;2023-03-31T19:23:43;4.88;;;0.98;;
19554;SDS011;9924;50.828;6.440;2023-03-31T19:26:27;4.38;;;1.00;;
19554;SDS011;9924;50.828;6.440;2023-03-31T19:29:11;4.22;;;0.98;;
19554;SDS011;9924;50.828;6.440;2023-03-31T19:31:56;8.02;;;1.88;;
19554;SDS011;9924;50.828;6.440;2023-03-31T19:34:40;4.75;;;1.27;;
19554;SDS011;9924;50.828;6.440;2023-03-31T19:37:26;3.55;;;1.00;;
19554;SDS011;9924;50.828;6.440;2023-03-31T19:40:11;9.27;;;1.25;;
19554;SDS011;9924;50.828;6.440;2023-03-31T19:42:56;5.05;;;1.13;;
19554;SDS011;9924;50.828;6.440;2023-03-31T19:45:40;10.80;;;2.00;;
19554;SDS011;9924;50.828;6.440;2023-03-31T19:48:26;4.22;;;1.20;;
19554;SDS011;9924;50.828;6.440;2023-03-31T19:51:12;7.20;;;1.38;;
19554;SDS011;9924;50.828;6.440;2023-03-31T19:53:57;3.05;;;0.80;;
19554;SDS011;9924;50.828;6.440;2023-03-31T19:56:41;4.90;;;0.93;;
19554;SDS011;9924;50.828;6.440;2023-03-31T19:59:26;3.45;;;0.90;;
19554;SDS011;9924;50.828;6.440;2023-03-31T20:02:11;2.95;;;0.80;;
19554;SDS011;9924;50.828;6.440;2023-03-31T20:04:56;4.00;;;1.02;;
19554;SDS011;9924;50.828;6.440;2023-03-31T20:07:40;7.15;;;1.30;;
19554;SDS011;9924;50.828;6.440;2023-03-31T20:10:24;3.63;;;1.05;;